Time;durP1;ratioP1;P1;durP2;ratioP2;P2;SDS_P1;SDS_P2;PMS_P1;PMS_P2;Temp;Humidity;BMP_temperature;BMP_pressure;BME280_temperature;BME280_humidity;BME280_pressure;Samples;Min_cycle;Max_cycle;Signal;HPM_P1;HPM_P2
2022/12/09 00:01:09;;;;;;;13.63;7.28;;;1.40;99.90;;;;;;5028142;28;20035;-63
2022/12/09 00:03:35;;;;;;;12.40;6.20;;;1.40;99.90;;;;;;5046283;28;20041;-62
2022/12/09 00:06:14;;;;;;;15.93;6.82;;;1.40;99.90;;;;;;5042917;28;20083;-63
2022/12/09 00:08:39;;;;;;;14.35;7.25;;;1.40;99.90;;;;;;5048649;28;20029;-63
2022/12/09 00:11:06;;;;;;;17.50;8.02;;;1.40;99.90;;;;;;5044657;28;20113;-63
2022/12/09 00:13:31;;;;;;;12.82;6.75;;;1.40;99.90;;;;;;5048634;28;20029;-63
2022/12/09 00:15:57;;;;;;;13.20;7.05;;;1.40;99.90;;;;;;5049260;28;20505;-63
2022/12/09 00:18:23;;;;;;;11.60;5.97;;;1.40;99.90;;;;;;5044578;28;20066;-62
2022/12/09 00:20:48;;;;;;;13.48;7.43;;;1.40;99.90;;;;;;5044289;28;20037;-63
2022/12/09 00:23:14;;;;;;;16.17;7.55;;;1.50;99.90;;;;;;5046558;28;20025;-62
2022/12/09 00:25:39;;;;;;;11.73;7.40;;;1.50;99.90;;;;;;5045666;28;20032;-63
2022/12/09 00:28:05;;;;;;;11.27;6.53;;;1.50;99.90;;;;;;5049747;28;20029;-63
2022/12/09 00:30:30;;;;;;;11.45;6.65;;;1.50;99.90;;;;;;5042895;28;20052;-62
2022/12/09 00:32:56;;;;;;;13.57;6.68;;;1.50;99.90;;;;;;5048794;28;20051;-63
2022/12/09 00:35:22;;;;;;;12.38;7.60;;;1.60;99.90;;;;;;5038113;28;20379;-63
2022/12/09 00:37:48;;;;;;;12.30;6.45;;;1.60;99.90;;;;;;5049036;28;20032;-63
2022/12/09 00:40:14;;;;;;;14.57;7.50;;;1.50;99.90;;;;;;5024471;28;20021;-63
2022/12/09 00:42:40;;;;;;;12.70;7.03;;;1.60;99.90;;;;;;5044780;28;20053;-62
2022/12/09 00:45:07;;;;;;;14.55;7.78;;;1.60;99.90;;;;;;5038466;28;20482;-63
2022/12/09 00:47:33;;;;;;;11.35;6.90;;;1.50;99.90;;;;;;5046856;28;20029;-63
2022/12/09 00:49:58;;;;;;;18.83;9.90;;;1.60;99.90;;;;;;5043371;28;20091;-63
2022/12/09 00:52:24;;;;;;;23.30;11.00;;;1.60;99.90;;;;;;5039559;28;20498;-63
2022/12/09 00:54:49;;;;;;;25.85;9.57;;;1.60;99.90;;;;;;5046023;28;20402;-63
2022/12/09 00:57:15;;;;;;;17.77;8.75;;;1.60;99.90;;;;;;5038514;28;20170;-63
2022/12/09 00:59:41;;;;;;;15.15;7.05;;;1.60;99.90;;;;;;5040921;28;20415;-63
2022/12/09 01:02:06;;;;;;;17.17;6.70;;;1.60;99.90;;;;;;5029768;28;20053;-63
2022/12/09 01:04:32;;;;;;;15.98;6.25;;;1.60;99.90;;;;;;5045051;28;20038;-63
2022/12/09 01:06:57;;;;;;;13.70;6.70;;;1.60;99.90;;;;;;5041373;28;20040;-63
2022/12/09 01:09:23;;;;;;;11.63;6.28;;;1.70;99.90;;;;;;5045225;28;20029;-64
2022/12/09 01:11:49;;;;;;;14.73;6.63;;;1.60;99.90;;;;;;5023006;28;20025;-63
2022/12/09 01:14:14;;;;;;;9.10;5.97;;;1.70;99.90;;;;;;5029700;28;20017;-60
2022/12/09 01:16:40;;;;;;;15.70;6.45;;;1.60;99.90;;;;;;5042823;28;20036;-62
2022/12/09 01:19:09;;;;;;;9.38;5.25;;;1.70;99.90;;;;;;5044946;28;20049;-63
2022/12/09 01:21:36;;;;;;;9.88;6.10;;;1.70;99.90;;;;;;5039659;28;20132;-63
2022/12/09 01:24:07;;;;;;;11.30;6.72;;;1.70;99.90;;;;;;5050717;28;20120;-62
2022/12/09 01:26:32;;;;;;;12.20;6.55;;;1.70;99.90;;;;;;5049151;28;20068;-62
2022/12/09 01:28:58;;;;;;;14.20;6.32;;;1.70;99.90;;;;;;5045675;28;20146;-63
2022/12/09 01:31:24;;;;;;;13.63;6.57;;;1.70;99.90;;;;;;5045635;28;20043;-63
2022/12/09 01:33:50;;;;;;;13.07;5.93;;;1.70;99.90;;;;;;5045509;28;20041;-63
2022/12/09 01:36:19;;;;;;;9.90;5.38;;;1.70;99.90;;;;;;5041968;28;20033;-63
2022/12/09 01:38:46;;;;;;;15.10;6.57;;;1.70;99.90;;;;;;5044308;28;20047;-63
2022/12/09 01:41:12;;;;;;;11.68;6.35;;;1.70;99.90;;;;;;5048346;28;20020;-62
2022/12/09 01:43:39;;;;;;;12.45;6.28;;;1.70;99.90;;;;;;5039980;28;20033;-63
2022/12/09 01:46:05;;;;;;;12.00;6.20;;;1.70;99.90;;;;;;5040893;28;20024;-63
2022/12/09 01:48:39;;;;;;;10.98;6.63;;;1.70;99.90;;;;;;5037826;28;20086;-63
2022/12/09 01:51:11;;;;;;;10.82;6.15;;;1.70;99.90;;;;;;5030849;28;20041;-63
2022/12/09 01:53:40;;;;;;;12.20;6.55;;;1.70;99.90;;;;;;5039699;28;20087;-63
2022/12/09 01:56:11;;;;;;;12.23;6.18;;;1.70;99.90;;;;;;5040684;28;20494;-63
2022/12/09 01:58:36;;;;;;;10.75;6.82;;;1.70;99.90;;;;;;5015299;28;20580;-63
2022/12/09 02:01:02;;;;;;;14.38;6.93;;;1.70;99.90;;;;;;5039343;28;20039;-62
2022/12/09 02:03:28;;;;;;;10.75;5.85;;;1.60;99.90;;;;;;5043117;28;20683;-63
2022/12/09 02:05:54;;;;;;;13.38;6.07;;;1.60;99.90;;;;;;5045934;28;20813;-62
2022/12/09 02:08:19;;;;;;;10.60;6.05;;;1.70;99.90;;;;;;5047120;28;20082;-61
2022/12/09 02:10:56;;;;;;;12.60;6.47;;;1.60;99.90;;;;;;5041884;28;20028;-63
2022/12/09 02:13:25;;;;;;;18.08;6.32;;;1.60;99.90;;;;;;5041898;28;20433;-62
2022/12/09 02:15:56;;;;;;;12.43;5.90;;;1.60;99.90;;;;;;5045623;28;20033;-62
2022/12/09 02:18:24;;;;;;;12.32;6.47;;;1.60;99.90;;;;;;5039621;28;20382;-62
2022/12/09 02:20:56;;;;;;;10.40;5.50;;;1.50;99.90;;;;;;5045609;28;20054;-63
2022/12/09 02:23:32;;;;;;;12.85;6.85;;;1.60;99.90;;;;;;5035681;28;20510;-62
2022/12/09 02:26:25;;;;;;;14.20;5.93;;;1.60;99.90;;;;;;5043232;28;20025;-63
2022/12/09 02:29:08;;;;;;;12.52;6.53;;;1.60;99.90;;;;;;5038785;28;20056;-62
2022/12/09 02:31:55;;;;;;;12.88;6.25;;;1.60;99.90;;;;;;5022425;28;20025;-62
2022/12/09 02:34:25;;;;;;;9.73;6.25;;;1.60;99.90;;;;;;5037221;28;20032;-63
2022/12/09 02:37:15;;;;;;;12.68;6.32;;;1.60;99.90;;;;;;5031919;28;20032;-63
2022/12/09 02:40:00;;;;;;;12.63;6.57;;;1.60;99.90;;;;;;5015180;28;20438;-63
2022/12/09 02:42:31;;;;;;;13.40;7.47;;;1.60;99.90;;;;;;5033370;28;20026;-63
2022/12/09 02:44:58;;;;;;;12.15;5.97;;;1.60;99.90;;;;;;5036289;28;20029;-63
2022/12/09 02:47:28;;;;;;;15.75;6.43;;;1.60;99.90;;;;;;5037434;28;20053;-63
2022/12/09 02:50:06;;;;;;;13.73;5.82;;;1.50;99.90;;;;;;5020884;28;20411;-63
2022/12/09 02:52:34;;;;;;;12.10;5.57;;;1.60;99.90;;;;;;5011337;28;20021;-63
2022/12/09 02:55:03;;;;;;;13.88;6.57;;;1.60;99.90;;;;;;5039949;28;20451;-61
2022/12/09 02:57:32;;;;;;;11.07;6.10;;;1.60;99.90;;;;;;5034672;28;20033;-63
2022/12/09 02:59:58;;;;;;;12.70;6.50;;;1.50;99.90;;;;;;5023860;28;20545;-63
2022/12/09 03:02:30;;;;;;;13.77;6.78;;;1.50;99.90;;;;;;5032086;28;20053;-62
2022/12/09 03:05:09;;;;;;;13.20;6.97;;;1.60;99.90;;;;;;5037935;28;22364;-62
2022/12/09 03:07:57;;;;;;;13.85;7.07;;;1.60;99.90;;;;;;5039484;28;20079;-63
2022/12/09 03:10:50;;;;;;;13.05;6.65;;;1.60;99.90;;;;;;5042062;28;20043;-63
2022/12/09 03:13:22;;;;;;;18.33;7.70;;;1.50;99.90;;;;;;5032361;28;20044;-62
2022/12/09 03:15:56;;;;;;;12.85;6.97;;;1.50;99.90;;;;;;5046168;28;20057;-62
2022/12/09 03:18:26;;;;;;;17.63;7.43;;;1.50;99.90;;;;;;5043937;28;20033;-63
2022/12/09 03:20:53;;;;;;;13.27;7.28;;;1.50;99.90;;;;;;5039491;28;20111;-63
2022/12/09 03:23:23;;;;;;;11.27;7.35;;;1.50;99.90;;;;;;5041437;28;20139;-63
2022/12/09 03:25:52;;;;;;;20.98;8.73;;;1.50;99.90;;;;;;5047348;28;20048;-62
2022/12/09 03:28:26;;;;;;;18.75;8.38;;;1.60;99.90;;;;;;5047188;28;20017;-62
2022/12/09 03:30:53;;;;;;;17.42;9.15;;;1.50;99.90;;;;;;5042710;28;20032;-62
2022/12/09 03:33:21;;;;;;;18.20;8.52;;;1.60;99.90;;;;;;5073094;23;20043;-66
2022/12/09 03:35:51;;;;;;;15.80;8.23;;;1.50;99.90;;;;;;5042194;28;20037;-64
2022/12/09 03:38:20;;;;;;;18.55;8.57;;;1.50;99.90;;;;;;5039231;28;20025;-65
2022/12/09 03:40:52;;;;;;;13.75;8.15;;;1.50;99.90;;;;;;5039361;28;20113;-66
2022/12/09 03:43:25;;;;;;;18.15;8.93;;;1.50;99.90;;;;;;5047114;28;20017;-65
2022/12/09 03:45:53;;;;;;;13.13;7.97;;;1.60;99.90;;;;;;5048363;28;20025;-65
2022/12/09 03:48:18;;;;;;;21.55;8.25;;;1.50;99.90;;;;;;5026364;28;20022;-66
2022/12/09 03:50:51;;;;;;;17.67;7.78;;;1.60;99.90;;;;;;5044986;28;20040;-65
2022/12/09 03:53:27;;;;;;;13.75;7.28;;;1.50;99.90;;;;;;5050011;28;20032;-64
2022/12/09 03:56:10;;;;;;;14.57;7.57;;;1.60;99.90;;;;;;5044274;28;20029;-65
2022/12/09 03:58:39;;;;;;;17.25;8.38;;;1.50;99.90;;;;;;5042514;28;20068;-66
2022/12/09 04:01:06;;;;;;;14.73;8.30;;;1.50;99.90;;;;;;5045168;28;20029;-65
2022/12/09 04:03:32;;;;;;;18.77;8.52;;;1.50;99.90;;;;;;5048577;28;20036;-66
2022/12/09 04:05:58;;;;;;;19.15;7.85;;;1.50;99.90;;;;;;5050619;28;20033;-66
2022/12/09 04:08:23;;;;;;;16.20;8.30;;;1.50;99.90;;;;;;5043026;28;20029;-66
2022/12/09 04:10:49;;;;;;;20.27;8.40;;;1.50;99.90;;;;;;5048754;28;20053;-66
2022/12/09 04:13:14;;;;;;;15.00;8.55;;;1.50;99.90;;;;;;5051949;28;20037;-66
2022/12/09 04:15:40;;;;;;;16.80;8.98;;;1.50;99.90;;;;;;5046333;28;20116;-66
2022/12/09 04:18:06;;;;;;;16.85;8.55;;;1.50;99.90;;;;;;5045889;28;20024;-66
2022/12/09 04:20:31;;;;;;;18.13;8.48;;;1.60;99.90;;;;;;5047274;28;20509;-65
2022/12/09 04:22:57;;;;;;;14.52;8.50;;;1.50;99.90;;;;;;5047973;28;20460;-66
2022/12/09 04:25:22;;;;;;;18.00;9.00;;;1.50;99.90;;;;;;5048877;28;20048;-66
2022/12/09 04:27:48;;;;;;;22.38;11.05;;;1.50;99.90;;;;;;5046967;28;20036;-65
2022/12/09 04:30:14;;;;;;;19.45;9.50;;;1.50;99.90;;;;;;5049595;28;20029;-66
2022/12/09 04:32:39;;;;;;;17.98;9.68;;;1.50;99.90;;;;;;5040681;28;20036;-65
2022/12/09 04:35:05;;;;;;;21.65;9.60;;;1.50;99.90;;;;;;5049130;28;20072;-65
2022/12/09 04:37:31;;;;;;;17.20;9.50;;;1.60;99.90;;;;;;5047869;28;20037;-65
2022/12/09 04:39:57;;;;;;;16.05;8.68;;;1.60;99.90;;;;;;5048422;28;20032;-66
2022/12/09 04:42:22;;;;;;;18.33;8.77;;;1.60;99.90;;;;;;5046921;28;20032;-66
2022/12/09 04:44:48;;;;;;;17.13;8.13;;;1.60;99.90;;;;;;5048487;28;20033;-66
2022/12/09 04:47:13;;;;;;;18.60;8.88;;;1.60;99.90;;;;;;5024786;28;20116;-66
2022/12/09 04:49:39;;;;;;;19.10;9.55;;;1.50;99.90;;;;;;5048427;28;20474;-64
2022/12/09 04:52:04;;;;;;;22.65;9.32;;;1.50;99.90;;;;;;5049151;28;20029;-66
2022/12/09 04:54:31;;;;;;;19.70;9.13;;;1.50;99.90;;;;;;5043485;28;20025;-66
2022/12/09 04:56:57;;;;;;;20.23;8.77;;;1.50;99.90;;;;;;5025931;28;20028;-66
2022/12/09 04:59:22;;;;;;;20.00;9.38;;;1.50;99.90;;;;;;5047998;28;20584;-64
2022/12/09 05:01:48;;;;;;;17.67;8.93;;;1.50;99.90;;;;;;5047339;28;20504;-66
2022/12/09 05:04:13;;;;;;;17.90;10.00;;;1.40;99.90;;;;;;5046651;28;20021;-66
2022/12/09 05:06:39;;;;;;;22.92;10.60;;;1.40;99.90;;;;;;5044785;28;20028;-65
2022/12/09 05:09:08;;;;;;;20.13;9.10;;;1.30;99.90;;;;;;5044530;28;20063;-64
2022/12/09 05:11:34;;;;;;;21.33;10.60;;;1.30;99.90;;;;;;5045679;28;20104;-66
2022/12/09 05:13:59;;;;;;;22.58;10.55;;;1.30;99.90;;;;;;5048798;28;20115;-66
2022/12/09 05:16:25;;;;;;;27.65;9.85;;;1.30;99.90;;;;;;5047236;28;20033;-66
2022/12/09 05:18:50;;;;;;;18.63;10.40;;;1.30;99.90;;;;;;5047907;28;20033;-67
2022/12/09 05:21:19;;;;;;;20.02;10.45;;;1.40;99.90;;;;;;5048752;28;20025;-65
2022/12/09 05:23:44;;;;;;;29.90;10.88;;;1.40;99.90;;;;;;5045894;28;20558;-66
2022/12/09 05:26:13;;;;;;;18.67;10.32;;;1.40;99.90;;;;;;5048760;28;20025;-66
2022/12/09 05:28:39;;;;;;;21.60;10.30;;;1.50;99.90;;;;;;5042318;28;20017;-66
2022/12/09 05:31:08;;;;;;;20.27;10.25;;;1.50;99.90;;;;;;5048255;28;21909;-64
2022/12/09 05:33:34;;;;;;;19.13;10.63;;;1.40;99.90;;;;;;5030572;28;20048;-66
2022/12/09 05:35:59;;;;;;;19.88;10.80;;;1.50;99.90;;;;;;5047035;28;20025;-66
2022/12/09 05:38:25;;;;;;;18.02;10.60;;;1.50;99.90;;;;;;5042869;28;20422;-66
2022/12/09 05:40:51;;;;;;;19.63;10.25;;;1.50;99.90;;;;;;5045191;28;20094;-65
2022/12/09 05:43:17;;;;;;;22.45;10.45;;;1.40;99.90;;;;;;5048278;28;20017;-66
2022/12/09 05:45:43;;;;;;;20.15;11.07;;;1.40;99.90;;;;;;5048670;28;20025;-66
2022/12/09 05:48:09;;;;;;;19.60;10.55;;;1.40;99.90;;;;;;5044414;28;20039;-66
2022/12/09 05:50:35;;;;;;;21.77;11.15;;;1.40;99.90;;;;;;5047551;28;20048;-67
2022/12/09 05:53:00;;;;;;;25.15;11.13;;;1.40;99.90;;;;;;5045334;28;20033;-67
2022/12/09 05:55:26;;;;;;;18.65;10.93;;;1.40;99.90;;;;;;5046146;28;20024;-65
2022/12/09 05:57:52;;;;;;;21.13;12.32;;;1.30;99.90;;;;;;5043344;28;20091;-66
2022/12/09 06:00:18;;;;;;;18.02;9.25;;;1.30;99.90;;;;;;5028348;28;20494;-65
2022/12/09 06:02:44;;;;;;;27.30;10.52;;;1.40;99.90;;;;;;5045713;28;20020;-66
2022/12/09 06:05:09;;;;;;;23.38;10.88;;;1.30;99.90;;;;;;5045460;28;20083;-66
2022/12/09 06:07:35;;;;;;;20.85;11.05;;;1.30;99.90;;;;;;5045192;28;20017;-66
2022/12/09 06:10:01;;;;;;;19.88;11.10;;;1.30;99.90;;;;;;5046461;28;20045;-66
2022/12/09 06:12:27;;;;;;;18.08;10.25;;;1.30;99.90;;;;;;5046427;28;20032;-67
2022/12/09 06:14:52;;;;;;;24.38;10.55;;;1.30;99.90;;;;;;5045730;28;20033;-65
2022/12/09 06:17:18;;;;;;;22.63;11.05;;;1.30;99.90;;;;;;5046546;28;20103;-65
2022/12/09 06:19:44;;;;;;;18.50;9.50;;;1.30;99.90;;;;;;5042536;28;20088;-66
2022/12/09 06:22:09;;;;;;;19.05;9.90;;;1.30;99.90;;;;;;5040590;28;20530;-65
2022/12/09 06:24:35;;;;;;;21.25;10.20;;;1.20;99.90;;;;;;5051674;28;20436;-66
2022/12/09 06:27:01;;;;;;;19.50;10.05;;;1.20;99.90;;;;;;5045131;28;20029;-67
2022/12/09 06:29:27;;;;;;;30.70;14.65;;;1.20;99.90;;;;;;5028098;28;20549;-66
2022/12/09 06:31:52;;;;;;;26.08;14.02;;;1.10;99.90;;;;;;5044937;28;20041;-66
2022/12/09 06:34:18;;;;;;;22.40;12.18;;;1.00;99.90;;;;;;5024334;28;20151;-67
2022/12/09 06:36:43;;;;;;;22.38;11.18;;;1.00;99.90;;;;;;5039665;28;20029;-67
2022/12/09 06:39:10;;;;;;;21.83;11.98;;;1.00;99.90;;;;;;5045633;28;20448;-67
2022/12/09 06:41:35;;;;;;;22.90;11.32;;;0.90;99.90;;;;;;5045813;28;20039;-65
2022/12/09 06:44:01;;;;;;;23.00;11.38;;;0.90;99.90;;;;;;5026053;28;20115;-67
2022/12/09 06:46:27;;;;;;;23.55;11.90;;;0.80;99.90;;;;;;5046784;28;20490;-65
2022/12/09 06:48:54;;;;;;;22.98;11.23;;;0.80;99.90;;;;;;5042103;28;20398;-66
2022/12/09 06:51:21;;;;;;;24.35;11.65;;;0.80;99.90;;;;;;5044461;28;20033;-66
2022/12/09 06:53:46;;;;;;;26.15;11.57;;;0.70;99.90;;;;;;5044229;28;20037;-67
2022/12/09 06:56:13;;;;;;;24.73;11.98;;;0.70;99.90;;;;;;5042431;28;20086;-66
2022/12/09 06:58:43;;;;;;;23.95;12.02;;;0.80;99.90;;;;;;5043544;28;20060;-67
2022/12/09 07:01:13;;;;;;;22.58;11.45;;;0.80;99.90;;;;;;5044626;28;20099;-68
2022/12/09 07:03:41;;;;;;;27.67;12.93;;;0.80;99.90;;;;;;5041181;28;20029;-66
2022/12/09 07:06:12;;;;;;;26.27;12.68;;;0.80;99.90;;;;;;5023525;28;20091;-67
2022/12/09 07:08:37;;;;;;;30.15;11.98;;;0.80;99.90;;;;;;5032807;28;20052;-67
2022/12/09 07:11:03;;;;;;;28.83;13.38;;;0.80;99.90;;;;;;5045739;28;20064;-64
2022/12/09 07:13:28;;;;;;;23.88;12.82;;;0.90;99.90;;;;;;5046231;28;20128;-67
2022/12/09 07:15:54;;;;;;;26.88;12.82;;;0.90;99.90;;;;;;5045641;28;20351;-66
2022/12/09 07:18:19;;;;;;;23.38;12.65;;;0.90;99.90;;;;;;5052914;28;20553;-67
2022/12/09 07:20:46;;;;;;;24.27;11.73;;;0.90;99.90;;;;;;5048807;28;20116;-66
2022/12/09 07:23:12;;;;;;;29.98;13.07;;;0.90;99.90;;;;;;5051548;28;20521;-66
2022/12/09 07:25:38;;;;;;;28.83;13.30;;;0.90;99.90;;;;;;5050806;28;20025;-67
2022/12/09 07:28:03;;;;;;;19.15;11.55;;;0.90;99.90;;;;;;5048091;28;20633;-67
2022/12/09 07:30:29;;;;;;;24.05;12.05;;;1.00;99.90;;;;;;5048657;28;20029;-67
2022/12/09 07:32:54;;;;;;;24.30;12.23;;;1.00;99.90;;;;;;5049370;28;20029;-66
2022/12/09 07:35:20;;;;;;;21.75;11.43;;;1.00;99.90;;;;;;5045982;28;20033;-66
2022/12/09 07:37:45;;;;;;;28.95;13.88;;;1.00;99.90;;;;;;5049556;28;20495;-66
2022/12/09 07:40:11;;;;;;;24.38;12.38;;;1.00;99.90;;;;;;5049992;28;20048;-67
2022/12/09 07:42:37;;;;;;;21.95;11.52;;;1.10;99.90;;;;;;5052195;28;20017;-67
2022/12/09 07:45:03;;;;;;;22.42;12.05;;;1.10;99.90;;;;;;5041386;28;20033;-65
2022/12/09 07:47:28;;;;;;;22.73;12.00;;;1.10;99.90;;;;;;5052165;28;20036;-67
2022/12/09 07:49:54;;;;;;;25.95;11.73;;;1.10;99.90;;;;;;5048289;28;20033;-68
2022/12/09 07:52:19;;;;;;;22.30;12.07;;;1.20;99.90;;;;;;5045876;28;20025;-66
2022/12/09 07:54:45;;;;;;;27.08;12.77;;;1.20;99.90;;;;;;5051382;28;20025;-64
2022/12/09 07:57:10;;;;;;;23.15;11.65;;;1.20;99.90;;;;;;5030815;28;20025;-66
2022/12/09 07:59:36;;;;;;;20.20;11.13;;;1.30;99.90;;;;;;5051114;28;20463;-66
2022/12/09 08:02:02;;;;;;;18.10;10.93;;;1.40;99.90;;;;;;5047809;28;20075;-66
2022/12/09 08:04:29;;;;;;;23.17;11.70;;;1.40;99.90;;;;;;5045446;28;20052;-65
2022/12/09 08:06:54;;;;;;;21.63;10.60;;;1.50;99.90;;;;;;5047496;28;20798;-67
2022/12/09 08:09:20;;;;;;;20.83;10.70;;;1.50;99.90;;;;;;5054541;28;20035;-67
2022/12/09 08:11:45;;;;;;;21.20;12.07;;;1.60;99.90;;;;;;5050117;28;20498;-66
2022/12/09 08:14:11;;;;;;;22.33;11.55;;;1.70;99.90;;;;;;5045406;28;20033;-68
2022/12/09 08:16:37;;;;;;;22.58;11.70;;;1.70;99.90;;;;;;5032955;28;20044;-66
2022/12/09 08:19:03;;;;;;;22.42;11.13;;;1.70;99.90;;;;;;5051273;28;20513;-64
2022/12/09 08:21:31;;;;;;;18.08;10.07;;;1.80;99.90;;;;;;5049274;28;20026;-66
2022/12/09 08:24:00;;;;;;;23.27;10.98;;;1.80;99.90;;;;;;5049905;28;20111;-66
2022/12/09 08:26:28;;;;;;;22.52;11.63;;;1.80;99.90;;;;;;5028106;28;20025;-66
2022/12/09 08:28:54;;;;;;;18.50;10.48;;;1.70;99.90;;;;;;5051057;28;20491;-66
2022/12/09 08:31:22;;;;;;;20.48;10.45;;;1.80;99.90;;;;;;5049693;28;20102;-66
2022/12/09 08:33:48;;;;;;;17.15;9.63;;;1.70;99.90;;;;;;5050348;28;20032;-66
2022/12/09 08:36:20;;;;;;;23.15;11.35;;;1.80;99.90;;;;;;5049251;28;20482;-66
2022/12/09 08:38:46;;;;;;;22.00;10.88;;;2.00;99.90;;;;;;5050823;28;20025;-65
2022/12/09 08:41:15;;;;;;;21.65;10.93;;;2.10;99.90;;;;;;5048716;28;20047;-67
2022/12/09 08:43:41;;;;;;;18.55;9.90;;;2.20;99.90;;;;;;5044082;28;20029;-67
2022/12/09 08:46:07;;;;;;;17.67;9.65;;;2.20;99.90;;;;;;5050357;28;20183;-65
2022/12/09 08:48:36;;;;;;;17.20;9.90;;;2.20;99.90;;;;;;5027870;28;20108;-67
2022/12/09 08:51:03;;;;;;;20.83;11.40;;;2.30;99.90;;;;;;5041731;28;20041;-66
2022/12/09 08:53:28;;;;;;;22.52;11.18;;;2.40;99.90;;;;;;5048910;28;20402;-66
2022/12/09 08:55:54;;;;;;;21.05;11.32;;;2.40;99.90;;;;;;5048498;28;20031;-67
2022/12/09 08:58:19;;;;;;;18.10;9.77;;;2.60;99.90;;;;;;5048963;28;20060;-67
2022/12/09 09:00:45;;;;;;;18.60;10.30;;;2.60;99.90;;;;;;5049142;28;20039;-66
2022/12/09 09:03:10;;;;;;;21.58;9.73;;;2.70;99.90;;;;;;5031072;28;20560;-67
2022/12/09 09:05:36;;;;;;;20.80;9.93;;;2.80;99.90;;;;;;5048527;28;20486;-67
2022/12/09 09:08:01;;;;;;;21.58;10.68;;;2.80;99.90;;;;;;5049962;28;20482;-66
2022/12/09 09:10:28;;;;;;;23.25;10.77;;;2.80;99.90;;;;;;5046195;28;20033;-65
2022/12/09 09:12:54;;;;;;;20.05;9.60;;;2.90;99.90;;;;;;5049105;28;20021;-66
2022/12/09 09:15:20;;;;;;;17.35;10.60;;;2.90;99.90;;;;;;5049243;28;20067;-67
2022/12/09 09:17:46;;;;;;;19.73;11.07;;;2.90;99.90;;;;;;5049905;28;20502;-66
2022/12/09 09:20:12;;;;;;;23.98;11.63;;;3.00;99.90;;;;;;5048378;28;20115;-66
2022/12/09 09:22:37;;;;;;;17.13;10.68;;;3.00;99.90;;;;;;5047321;28;20025;-67
2022/12/09 09:25:03;;;;;;;20.25;9.88;;;3.00;99.90;;;;;;5043695;28;20553;-66
2022/12/09 09:27:29;;;;;;;21.90;10.07;;;3.10;99.90;;;;;;5030808;28;20103;-67
2022/12/09 09:29:54;;;;;;;19.67;10.02;;;3.10;99.90;;;;;;5050368;28;20021;-65
2022/12/09 09:32:20;;;;;;;25.00;10.52;;;3.20;99.90;;;;;;5050589;28;20028;-66
2022/12/09 09:34:48;;;;;;;19.85;9.82;;;3.30;99.90;;;;;;5044552;28;20028;-68
2022/12/09 09:37:14;;;;;;;16.20;9.75;;;3.40;99.90;;;;;;5046344;28;20028;-67
2022/12/09 09:39:40;;;;;;;15.93;8.80;;;3.40;99.90;;;;;;5047833;28;20025;-66
2022/12/09 09:42:16;;;;;;;19.60;10.07;;;3.70;99.90;;;;;;5048406;28;20049;-66
2022/12/09 09:44:42;;;;;;;19.58;9.10;;;3.70;99.90;;;;;;5041413;28;20025;-66
2022/12/09 09:47:24;;;;;;;20.35;9.38;;;3.80;99.90;;;;;;5046399;28;20074;-64
2022/12/09 09:50:25;;;;;;;18.00;9.45;;;4.00;99.90;;;;;;5047306;28;20033;-66
2022/12/09 09:52:52;;;;;;;12.82;7.28;;;3.90;99.90;;;;;;5045351;28;20095;-67
2022/12/09 09:55:29;;;;;;;14.98;8.85;;;3.80;99.90;;;;;;5045362;28;20121;-66
2022/12/09 09:58:03;;;;;;;14.05;7.82;;;3.80;99.90;;;;;;5043062;28;20048;-67
2022/12/09 10:00:40;;;;;;;19.83;9.95;;;3.90;99.90;;;;;;5045967;28;20027;-67
2022/12/09 10:03:13;;;;;;;18.20;8.98;;;3.90;99.90;;;;;;5045014;28;20029;-63
2022/12/09 10:05:57;;;;;;;17.80;9.45;;;3.90;99.90;;;;;;5031021;28;20021;-68
2022/12/09 10:08:23;;;;;;;;;;;3.70;99.90;;;;;;5049062;28;20013;-65
2022/12/09 10:11:06;;;;;;;18.58;8.95;;;3.70;99.90;;;;;;5049050;28;19904;-65
2022/12/09 10:13:56;;;;;;;17.75;8.85;;;3.80;99.90;;;;;;5046483;28;20037;-64
2022/12/09 10:16:46;;;;;;;14.48;8.57;;;3.60;99.90;;;;;;5050026;28;20029;-65
2022/12/09 10:19:35;;;;;;;14.82;7.90;;;3.60;99.90;;;;;;5048292;28;20438;-68
2022/12/09 10:22:16;;;;;;;13.73;6.40;;;3.40;99.90;;;;;;5044921;28;20029;-66
2022/12/09 10:24:47;;;;;;;10.75;6.07;;;3.30;99.90;;;;;;5040836;28;20020;-65
2022/12/09 10:27:19;;;;;;;14.25;6.80;;;3.30;99.90;;;;;;5048501;28;20032;-65
2022/12/09 10:30:02;;;;;;;14.30;7.32;;;3.20;99.90;;;;;;5045631;28;20055;-65
2022/12/09 10:32:33;;;;;;;15.35;8.13;;;3.20;99.90;;;;;;5042293;28;20017;-66
2022/12/09 10:34:59;;;;;;;14.77;7.45;;;3.20;99.90;;;;;;5046388;28;20090;-65
2022/12/09 10:37:28;;;;;;;12.95;7.78;;;3.20;99.90;;;;;;5048545;28;20029;-66
2022/12/09 10:40:08;;;;;;;16.45;9.32;;;3.20;99.90;;;;;;5045114;28;20429;-65
2022/12/09 10:45:21;;;;;;;13.10;7.55;;;3.20;99.90;;;;;;5045739;28;20509;-66
2022/12/09 10:47:51;;;;;;;15.90;8.55;;;3.20;99.90;;;;;;5048492;28;20029;-66
2022/12/09 10:50:30;;;;;;;18.50;8.75;;;3.10;99.90;;;;;;5046197;28;20086;-66
2022/12/09 10:53:02;;;;;;;14.57;7.88;;;3.20;99.90;;;;;;5051358;28;20029;-66
2022/12/09 10:55:37;;;;;;;15.93;9.05;;;3.20;99.90;;;;;;5050439;28;20398;-66
2022/12/09 10:58:18;;;;;;;13.70;6.97;;;3.30;99.90;;;;;;5051396;28;20390;-65
2022/12/09 11:01:05;;;;;;;11.63;5.80;;;3.40;99.90;;;;;;5048454;28;20047;-66
2022/12/09 11:03:36;;;;;;;13.18;6.93;;;3.40;99.90;;;;;;5048528;28;20166;-66
2022/12/09 11:06:13;;;;;;;13.52;6.47;;;3.50;99.90;;;;;;5030942;28;20030;-66
2022/12/09 11:08:41;;;;;;;14.45;6.45;;;3.60;99.90;;;;;;5049821;28;20021;-66
2022/12/09 11:11:07;;;;;;;12.68;6.13;;;3.50;99.90;;;;;;5034421;28;20029;-64
2022/12/09 11:13:39;;;;;;;10.95;5.85;;;3.50;99.90;;;;;;5050018;28;20033;-66
2022/12/09 11:16:06;;;;;;;14.55;6.57;;;3.50;99.90;;;;;;5050290;28;20118;-65
2022/12/09 11:18:43;;;;;;;17.35;5.53;;;3.60;99.90;;;;;;5051613;28;20033;-66
2022/12/09 11:21:32;;;;;;;10.75;6.07;;;3.60;99.90;;;;;;5050436;28;20040;-66
2022/12/09 11:23:58;;;;;;;9.20;5.90;;;3.70;99.90;;;;;;5048765;28;20029;-65
2022/12/09 11:26:30;;;;;;;11.80;6.38;;;3.80;99.90;;;;;;5052635;28;20517;-66
2022/12/09 11:29:12;;;;;;;13.70;6.85;;;3.90;99.90;;;;;;5051177;28;20033;-66
2022/12/09 11:31:38;;;;;;;11.70;6.15;;;4.00;99.90;;;;;;5049009;28;20608;-65
2022/12/09 11:34:24;;;;;;;15.45;6.45;;;4.00;99.90;;;;;;5035257;28;20079;-66
2022/12/09 11:36:56;;;;;;;15.35;6.90;;;4.20;99.90;;;;;;5031589;28;20033;-67
2022/12/09 11:39:28;;;;;;;11.55;7.28;;;4.20;99.90;;;;;;5029942;28;20028;-64
2022/12/09 11:45:04;;;;;;;9.95;5.57;;;4.40;99.90;;;;;;5049256;28;20039;-67
2022/12/09 11:47:35;;;;;;;13.05;5.78;;;4.60;99.90;;;;;;5051158;28;20021;-66
2022/12/09 11:50:22;;;;;;;7.82;4.70;;;4.60;99.90;;;;;;5048150;28;20028;-68
2022/12/09 11:53:11;;;;;;;11.05;5.60;;;4.60;99.90;;;;;;5047396;28;20426;-65
2022/12/09 11:55:47;;;;;;;15.10;8.40;;;4.60;99.90;;;;;;5050807;28;20031;-66
2022/12/09 11:58:21;;;;;;;18.13;10.07;;;4.60;99.90;;;;;;5048184;28;20146;-66
2022/12/09 12:00:51;;;;;;;;;;;4.50;99.90;;;;;;5050735;28;20090;-66
2022/12/09 12:03:22;;;;;;;16.65;9.23;;;4.50;99.90;;;;;;5046570;28;20293;-65
2022/12/09 12:05:53;;;;;;;17.63;8.38;;;4.40;99.90;;;;;;5044727;28;20036;-66
2022/12/09 12:08:48;;;;;;;14.45;9.20;;;4.30;99.90;;;;;;5045826;28;20494;-66
2022/12/09 12:11:28;;;;;;;15.82;8.68;;;4.20;99.90;;;;;;5044610;28;20030;-66
2022/12/09 12:14:02;;;;;;;17.50;8.63;;;4.10;99.90;;;;;;5046347;28;20040;-65
2022/12/09 12:16:42;;;;;;;16.42;8.40;;;3.90;99.90;;;;;;5050331;28;20445;-66
2022/12/09 12:19:29;;;;;;;15.40;8.15;;;3.80;99.90;;;;;;5048880;28;20433;-63
2022/12/09 12:22:13;;;;;;;16.85;7.93;;;3.60;99.90;;;;;;5050283;28;20478;-66
2022/12/09 12:25:19;;;;;;;17.90;7.93;;;3.50;99.90;;;;;;5039662;28;20021;-65
2022/12/09 12:28:07;;;;;;;17.88;8.07;;;3.30;99.90;;;;;;5021067;28;20025;-68
2022/12/09 12:30:43;;;;;;;13.90;7.55;;;3.10;99.90;;;;;;5048486;28;20094;-65
2022/12/09 12:33:20;;;;;;;17.60;8.40;;;3.10;99.90;;;;;;5051613;28;20059;-64
2022/12/09 12:35:59;;;;;;;16.02;8.25;;;3.10;99.90;;;;;;5049342;28;20024;-66
2022/12/09 12:38:43;;;;;;;19.35;9.05;;;3.00;99.90;;;;;;5048422;28;20115;-67
2022/12/09 12:41:23;;;;;;;20.60;8.75;;;3.00;99.90;;;;;;5049815;28;20025;-64
2022/12/09 12:47:04;;;;;;;15.00;7.80;;;3.00;99.90;;;;;;5050453;28;20036;-66
2022/12/09 12:49:35;;;;;;;16.60;7.40;;;3.10;99.90;;;;;;5046799;28;20041;-66
2022/12/09 12:52:29;;;;;;;16.20;7.50;;;3.10;99.90;;;;;;5046904;28;20518;-66
2022/12/09 12:55:10;;;;;;;14.43;7.13;;;3.00;99.90;;;;;;5046267;28;20167;-66
2022/12/09 12:58:08;;;;;;;18.80;8.00;;;3.10;99.90;;;;;;5044724;28;20170;-64
2022/12/09 13:01:14;;;;;;;14.23;7.32;;;3.10;99.90;;;;;;5048779;28;20036;-66
2022/12/09 13:03:57;;;;;;;11.68;6.03;;;3.00;99.90;;;;;;5047067;28;20497;-65
2022/12/09 13:06:46;;;;;;;12.52;6.13;;;3.10;99.90;;;;;;5048674;28;20032;-66
2022/12/09 13:09:26;;;;;;;15.70;5.70;;;3.10;99.90;;;;;;5049580;28;20501;-66